createdAt,value
2022-10-03T00:00:20.990Z,17.46
2022-10-03T00:02:51.316Z,17.46
2022-10-03T00:05:42.233Z,17.39
2022-10-03T00:08:27.950Z,17.43
2022-10-03T00:11:04.438Z,17.45
2022-10-03T00:14:06.173Z,17.43
2022-10-03T00:17:10.250Z,17.49
2022-10-03T00:20:00.196Z,17.55
2022-10-03T00:22:38.158Z,17.43
2022-10-03T00:25:27.293Z,17.43
2022-10-03T00:28:27.141Z,17.43
2022-10-03T00:31:17.294Z,17.29
2022-10-03T00:34:08.195Z,17.21
2022-10-03T00:37:14.121Z,17.10
2022-10-03T00:39:51.591Z,17.13
2022-10-03T00:42:56.374Z,17.04
2022-10-03T00:45:55.640Z,17.01
2022-10-03T00:48:43.960Z,16.97
2022-10-03T00:51:44.136Z,16.98
2022-10-03T00:54:42.701Z,17.01
2022-10-03T00:57:37.801Z,17.06
2022-10-03T01:00:20.467Z,17.06
2022-10-03T01:03:42.083Z,17.13
2022-10-03T01:06:19.502Z,17.27
2022-10-03T01:08:57.275Z,17.30
2022-10-03T01:11:25.075Z,17.22
2022-10-03T01:14:23.229Z,17.21
2022-10-03T01:16:59.474Z,17.24
2022-10-03T01:19:48.045Z,17.26
2022-10-03T01:22:46.152Z,17.25
2022-10-03T01:25:16.641Z,17.33
2022-10-03T01:28:14.023Z,17.34
2022-10-03T01:30:47.659Z,17.30
2022-10-03T01:33:37.598Z,17.22
2022-10-03T01:36:14.975Z,17.23
2022-10-03T01:38:45.591Z,17.36
2022-10-03T01:41:34.339Z,17.30
2022-10-03T01:44:30.950Z,17.34
2022-10-03T01:47:22.672Z,17.25
2022-10-03T01:50:21.706Z,17.21
2022-10-03T01:53:00.110Z,17.21
2022-10-03T01:55:45.882Z,17.24
2022-10-03T01:58:31.306Z,17.24
2022-10-03T02:01:22.900Z,17.35
2022-10-03T02:03:56.974Z,17.30
2022-10-03T02:06:43.140Z,17.27
2022-10-03T02:09:29.455Z,17.28
2022-10-03T02:12:15.934Z,17.40
2022-10-03T02:14:50.192Z,17.43
2022-10-03T02:17:39.032Z,17.45
2022-10-03T02:20:25.706Z,17.37
2022-10-03T02:22:55.984Z,17.38
2022-10-03T02:25:35.609Z,17.48
2022-10-03T02:28:36.466Z,17.49
2022-10-03T02:31:30.235Z,17.44
2022-10-03T02:34:19.235Z,17.37
2022-10-03T02:37:11.175Z,17.29
2022-10-03T02:40:03.180Z,17.18
2022-10-03T02:42:59.646Z,17.21
2022-10-03T02:45:46.698Z,17.18
2022-10-03T02:48:34.951Z,17.21
2022-10-03T02:51:26.602Z,17.19
2022-10-03T02:54:24.093Z,17.20
2022-10-03T02:57:28.863Z,17.22
2022-10-03T02:59:59.142Z,17.22
2022-10-03T03:03:01.409Z,17.20
2022-10-03T03:05:34.849Z,17.18
2022-10-03T03:08:33.712Z,17.23
2022-10-03T03:11:39.380Z,17.06
2022-10-03T03:14:34.195Z,17.03
2022-10-03T03:17:35.399Z,16.99
2022-10-03T03:20:27.757Z,17.04
2022-10-03T03:23:24.845Z,17.10
2022-10-03T03:26:18.532Z,17.12
2022-10-03T03:29:11.492Z,17.17
2022-10-03T03:31:51.035Z,17.12
2022-10-03T03:34:42.279Z,17.03
2022-10-03T03:37:28.540Z,16.95
2022-10-03T03:40:43.450Z,16.92
2022-10-03T03:43:25.708Z,16.94
2022-10-03T03:45:54.397Z,16.85
2022-10-03T03:48:31.587Z,16.80
2022-10-03T03:51:21.998Z,16.71
2022-10-03T03:54:12.939Z,16.67
2022-10-03T03:57:12.439Z,16.65
2022-10-03T03:59:49.235Z,16.66
2022-10-03T04:02:35.069Z,16.67
2022-10-03T04:05:34.995Z,16.73
2022-10-03T04:08:26.899Z,16.77
2022-10-03T04:11:07.082Z,16.73
2022-10-03T04:13:37.168Z,16.73
2022-10-03T04:16:13.536Z,16.71
2022-10-03T04:19:00.914Z,16.71
2022-10-03T04:21:51.157Z,16.60
2022-10-03T04:24:36.568Z,16.56
2022-10-03T04:27:25.302Z,16.65
2022-10-03T04:30:07.782Z,16.56
2022-10-03T04:32:49.874Z,16.51
2022-10-03T04:35:42.347Z,16.49
2022-10-03T04:38:15.696Z,16.38
2022-10-03T04:41:01.853Z,16.28
2022-10-03T04:43:43.934Z,16.15
2022-10-03T04:46:39.850Z,16.09
2022-10-03T04:49:35.562Z,16.01
2022-10-03T04:52:36.252Z,15.89
2022-10-03T04:55:08.115Z,15.78
2022-10-03T04:57:45.261Z,15.78
2022-10-03T05:00:24.050Z,15.92
2022-10-03T05:03:15.359Z,15.90
2022-10-03T05:05:57.388Z,15.84
2022-10-03T05:08:35.354Z,15.87
2022-10-03T05:11:09.123Z,15.92
2022-10-03T05:14:00.828Z,15.94
2022-10-03T05:16:37.568Z,15.97
2022-10-03T05:19:23.867Z,16.02
2022-10-03T05:22:02.607Z,16.04
2022-10-03T05:24:50.215Z,16.09
2022-10-03T05:27:34.490Z,15.99
2022-10-03T05:30:15.765Z,15.88
2022-10-03T05:32:59.030Z,15.82
2022-10-03T05:35:51.165Z,15.93
2022-10-03T05:38:26.645Z,15.99
2022-10-03T05:41:10.901Z,15.95
2022-10-03T05:43:58.470Z,16.00
2022-10-03T05:46:54.911Z,16.12
2022-10-03T05:50:09.513Z,16.57
2022-10-03T05:53:11.105Z,17.30
2022-10-03T05:56:03.397Z,18.21
2022-10-03T05:58:49.456Z,18.43
2022-10-03T06:01:35.353Z,18.88
2022-10-03T06:04:11.534Z,19.53
2022-10-03T06:06:47.666Z,19.76
2022-10-03T06:09:33.422Z,20.43
2022-10-03T06:12:08.856Z,20.85
2022-10-03T06:14:51.254Z,20.88
2022-10-03T06:17:43.023Z,20.71
2022-10-03T06:20:57.012Z,21.25
2022-10-03T06:23:33.986Z,21.91
2022-10-03T06:26:07.363Z,22.40
2022-10-03T06:28:59.725Z,23.05
2022-10-03T06:31:50.595Z,22.26
2022-10-03T06:34:53.027Z,22.64
2022-10-03T06:37:32.449Z,22.32
2022-10-03T06:40:54.929Z,21.03
2022-10-03T06:43:40.583Z,19.84
2022-10-03T06:46:30.879Z,19.14
2022-10-03T06:49:18.677Z,18.95
2022-10-03T06:51:57.640Z,18.58
2022-10-03T06:54:31.070Z,18.25
2022-10-03T06:57:07.236Z,18.20
2022-10-03T06:59:51.702Z,18.30
2022-10-03T07:02:46.803Z,18.31
2022-10-03T07:05:45.211Z,18.43
2022-10-03T07:08:22.370Z,18.54
2022-10-03T07:10:59.706Z,18.59
2022-10-03T07:13:51.518Z,18.48
2022-10-03T07:16:46.649Z,18.61
2022-10-03T07:34:20.951Z,22.08
2022-10-03T07:37:13.139Z,24.03
2022-10-03T07:40:16.801Z,25.51
2022-10-03T07:43:19.329Z,25.02
2022-10-03T07:46:20.506Z,25.61
2022-10-03T07:49:18.383Z,26.66
2022-10-03T07:52:22.443Z,26.62
2022-10-03T07:55:27.581Z,27.01
2022-10-03T07:58:43.154Z,27.02
2022-10-03T08:01:13.283Z,27.86
2022-10-03T08:03:59.722Z,28.21
2022-10-03T08:06:40.114Z,28.43
2022-10-03T08:09:28.506Z,28.16
2022-10-03T08:12:28.297Z,29.01
2022-10-03T08:14:58.375Z,28.35
2022-10-03T08:17:56.407Z,28.62
2022-10-03T08:20:50.938Z,28.47
2022-10-03T08:23:44.901Z,28.83
2022-10-03T08:26:20.936Z,29.11
2022-10-03T08:29:01.069Z,29.04
2022-10-03T08:31:42.427Z,29.62
2022-10-03T08:34:28.817Z,29.61
2022-10-03T08:37:23.916Z,29.94
2022-10-03T08:40:03.542Z,29.29
2022-10-03T08:42:50.307Z,29.54
2022-10-03T08:45:56.154Z,29.86
2022-10-03T08:48:41.511Z,30.53
2022-10-03T08:51:49.669Z,29.26
2022-10-03T08:54:26.109Z,29.93
2022-10-03T08:57:11.497Z,29.86
2022-10-03T09:00:01.145Z,30.22
2022-10-03T09:03:13.664Z,30.72
2022-10-03T09:06:19.917Z,29.98
2022-10-03T09:08:53.179Z,29.80
2022-10-03T09:11:47.870Z,30.33
2022-10-03T09:14:20.884Z,31.02
2022-10-03T09:16:55.084Z,30.26
2022-10-03T09:19:40.166Z,30.65
2022-10-03T09:22:29.876Z,30.89
2022-10-03T09:25:51.503Z,30.83
2022-10-03T09:28:39.966Z,30.75
2022-10-03T09:31:18.642Z,30.55
2022-10-03T09:33:55.457Z,31.63
2022-10-03T09:36:50.495Z,30.32
2022-10-03T09:39:55.562Z,30.79
2022-10-03T09:42:41.617Z,30.15
2022-10-03T09:45:42.834Z,30.53
2022-10-03T09:48:25.466Z,30.37
2022-10-03T09:51:13.333Z,30.00
2022-10-03T09:53:45.948Z,29.87
2022-10-03T09:56:13.127Z,29.34
2022-10-03T09:59:08.091Z,29.45
2022-10-03T10:02:16.882Z,29.39
2022-10-03T10:05:15.982Z,28.87
2022-10-03T10:08:02.629Z,28.10
2022-10-03T10:10:51.308Z,28.40
2022-10-03T10:14:06.187Z,28.57
2022-10-03T10:16:54.407Z,28.01
2022-10-03T10:19:43.729Z,27.86
2022-10-03T10:22:40.827Z,27.47
2022-10-03T10:25:08.117Z,27.45
2022-10-03T10:27:35.537Z,27.42
2022-10-03T10:30:40.119Z,27.51
2022-10-03T10:33:45.532Z,26.99
2022-10-03T10:36:27.814Z,27.13
2022-10-03T10:39:04.009Z,27.04
2022-10-03T10:42:01.772Z,27.27
2022-10-03T10:44:56.865Z,27.21
2022-10-03T10:48:16.880Z,27.01
2022-10-03T10:51:10.247Z,27.22
2022-10-03T10:54:15.043Z,27.20
2022-10-03T10:57:16.217Z,26.67
2022-10-03T11:00:23.406Z,26.74
2022-10-03T11:03:22.592Z,26.79
2022-10-03T11:06:17.195Z,27.07
2022-10-03T11:09:25.726Z,26.72
2022-10-03T11:12:31.004Z,26.64
2022-10-03T11:15:41.049Z,26.51
2022-10-03T11:18:26.620Z,26.51
2022-10-03T11:21:08.782Z,26.53
2022-10-03T11:24:14.881Z,26.77
2022-10-03T11:26:48.330Z,26.65
2022-10-03T11:29:54.237Z,26.80
2022-10-03T11:32:57.548Z,26.69
2022-10-03T11:35:43.352Z,26.54
2022-10-03T11:38:49.481Z,26.74
2022-10-03T11:41:54.007Z,26.96
2022-10-03T11:44:35.044Z,26.81
2022-10-03T11:47:36.029Z,26.82
2022-10-03T11:50:29.191Z,26.91
2022-10-03T11:52:59.567Z,27.09
2022-10-03T11:55:41.231Z,27.24
2022-10-03T11:58:32.284Z,26.97
2022-10-03T12:01:07.760Z,27.10
2022-10-03T12:03:51.893Z,26.99
2022-10-03T12:07:04.007Z,27.06
2022-10-03T12:09:38.319Z,27.10
2022-10-03T12:12:33.455Z,26.65
2022-10-03T12:15:19.765Z,26.88
2022-10-03T12:18:06.755Z,27.39
2022-10-03T12:20:39.839Z,27.82
2022-10-03T12:23:44.246Z,26.97
2022-10-03T12:26:19.541Z,27.09
2022-10-03T12:28:54.688Z,27.34
2022-10-03T12:31:36.114Z,27.27
2022-10-03T12:34:25.283Z,27.50
2022-10-03T12:37:21.803Z,26.99
2022-10-03T12:40:05.995Z,27.06
2022-10-03T12:43:04.509Z,27.10
2022-10-03T12:46:02.898Z,27.06
2022-10-03T12:48:37.639Z,27.23
2022-10-03T12:51:22.593Z,27.17
2022-10-03T12:53:52.591Z,26.55
2022-10-03T12:56:42.390Z,26.99
2022-10-03T12:59:25.767Z,27.01
2022-10-03T13:02:20.662Z,27.16
2022-10-03T13:05:15.981Z,26.72
2022-10-03T13:07:57.994Z,26.76
2022-10-03T13:10:37.366Z,27.00
2022-10-03T13:13:19.245Z,27.04
2022-10-03T13:15:53.961Z,26.83
2022-10-03T13:18:33.340Z,26.62
2022-10-03T13:21:33.463Z,26.67
2022-10-03T13:24:02.890Z,26.88
2022-10-03T13:26:48.416Z,26.65
2022-10-03T13:29:25.367Z,26.60
2022-10-03T13:32:12.147Z,26.62
2022-10-03T13:34:52.158Z,26.98
2022-10-03T13:37:31.552Z,26.83
2022-10-03T13:40:12.606Z,26.49
2022-10-03T13:42:52.288Z,26.37
2022-10-03T13:45:26.352Z,26.13
2022-10-03T13:48:07.423Z,26.21
2022-10-03T13:50:52.311Z,26.38
2022-10-03T13:53:51.214Z,26.19
2022-10-03T13:56:35.447Z,26.11
2022-10-03T13:59:07.562Z,26.04
2022-10-03T14:01:48.967Z,26.02
2022-10-03T14:04:29.136Z,25.80
2022-10-03T14:07:25.065Z,25.98
2022-10-03T14:10:19.788Z,25.67
2022-10-03T14:13:06.080Z,25.72
2022-10-03T14:15:56.061Z,25.93
2022-10-03T14:18:50.019Z,25.85
2022-10-03T14:21:36.952Z,25.81
2022-10-03T14:24:58.057Z,25.75
2022-10-03T14:28:00.247Z,25.55
2022-10-03T14:31:06.038Z,25.35
2022-10-03T14:34:12.059Z,25.26
2022-10-03T14:37:15.879Z,25.18
2022-10-03T14:40:08.562Z,25.09
2022-10-03T14:42:48.255Z,25.19
2022-10-03T14:45:26.479Z,25.20
2022-10-03T14:47:59.566Z,25.05
2022-10-03T14:50:31.376Z,24.87
2022-10-03T14:53:29.857Z,24.68
2022-10-03T14:56:09.880Z,24.62
2022-10-03T14:58:52.456Z,24.63
2022-10-03T15:01:24.879Z,24.61
2022-10-03T15:04:10.150Z,24.56
2022-10-03T15:06:46.446Z,24.39
2022-10-03T15:09:21.369Z,24.44
2022-10-03T15:11:54.484Z,24.31
2022-10-03T15:14:24.359Z,24.30
2022-10-03T15:16:54.877Z,24.23
2022-10-03T15:19:32.871Z,24.19
2022-10-03T15:22:27.080Z,23.99
2022-10-03T15:24:59.048Z,23.91
2022-10-03T15:27:26.852Z,23.90
2022-10-03T15:29:58.036Z,23.88
2022-10-03T15:32:42.230Z,23.81
2022-10-03T15:35:20.476Z,23.65
2022-10-03T15:37:48.832Z,23.67
2022-10-03T15:40:25.378Z,23.60
2022-10-03T15:43:22.834Z,23.65
2022-10-03T15:45:50.958Z,23.66
2022-10-03T15:48:21.839Z,23.72
2022-10-03T15:51:01.616Z,23.71
2022-10-03T15:53:37.186Z,23.64
2022-10-03T15:56:07.770Z,23.48
2022-10-03T15:58:39.129Z,23.35
2022-10-03T16:01:29.050Z,23.25
2022-10-03T16:04:01.681Z,23.14
2022-10-03T16:06:41.091Z,22.99
2022-10-03T16:09:25.619Z,22.90
2022-10-03T16:12:43.628Z,22.84
2022-10-03T16:15:20.857Z,22.71
2022-10-03T16:17:54.612Z,22.66
2022-10-03T16:20:41.714Z,22.58
2022-10-03T16:23:22.500Z,22.61
2022-10-03T16:25:57.432Z,22.58
2022-10-03T16:29:06.874Z,22.48
2022-10-03T16:31:43.591Z,22.34
2022-10-03T16:34:16.549Z,22.26
2022-10-03T16:36:49.313Z,22.20
2022-10-03T16:39:23.822Z,22.17
2022-10-03T16:41:55.753Z,22.07
2022-10-03T16:44:39.847Z,22.00
2022-10-03T16:47:09.313Z,21.87
2022-10-03T16:50:02.036Z,21.75
2022-10-03T16:52:36.242Z,21.72
2022-10-03T16:55:08.607Z,21.65
2022-10-03T16:57:46.218Z,21.62
2022-10-03T17:00:41.115Z,21.61
2022-10-03T17:03:22.674Z,21.55
2022-10-03T17:05:53.942Z,21.43
2022-10-03T17:08:41.359Z,21.29
2022-10-03T17:11:19.576Z,21.23
2022-10-03T17:13:52.447Z,21.21
2022-10-03T17:16:37.469Z,21.18
2022-10-03T17:19:20.524Z,21.25
2022-10-03T17:21:55.694Z,21.22
2022-10-03T17:24:42.398Z,21.27
2022-10-03T17:27:24.303Z,21.19
2022-10-03T17:30:01.960Z,21.23
2022-10-03T17:32:39.970Z,21.14
2022-10-03T17:35:11.807Z,21.08
2022-10-03T17:37:56.052Z,21.02
2022-10-03T17:40:35.663Z,20.90
2022-10-03T17:43:10.585Z,20.91
2022-10-03T17:46:05.531Z,20.82
2022-10-03T17:48:43.409Z,20.75
2022-10-03T17:51:16.429Z,20.72
2022-10-03T17:53:54.258Z,20.69
2022-10-03T17:56:27.456Z,20.69
2022-10-03T17:59:14.531Z,20.78
2022-10-03T18:01:45.391Z,20.82
2022-10-03T18:04:19.636Z,20.84
2022-10-03T18:06:50.404Z,20.84
2022-10-03T18:09:17.633Z,20.90
2022-10-03T18:11:49.775Z,20.75
2022-10-03T18:14:47.739Z,20.73
2022-10-03T18:17:52.525Z,20.77
2022-10-03T18:20:29.705Z,20.74
2022-10-03T18:23:01.176Z,20.79
2022-10-03T18:26:20.761Z,20.61
2022-10-03T18:29:23.585Z,20.47
2022-10-03T18:31:58.350Z,20.42
2022-10-03T18:34:34.451Z,20.34
2022-10-03T18:37:28.106Z,20.36
2022-10-03T18:39:58.479Z,20.33
2022-10-03T18:42:28.332Z,20.33
2022-10-03T18:45:00.962Z,20.36
2022-10-03T18:47:37.561Z,20.28
2022-10-03T18:50:20.421Z,20.29
2022-10-03T18:52:55.579Z,20.29
2022-10-03T18:55:42.574Z,20.22
2022-10-03T18:58:25.335Z,20.15
2022-10-03T19:01:05.057Z,20.18
2022-10-03T19:03:39.742Z,20.21
2022-10-03T19:06:19.371Z,20.23
2022-10-03T19:09:26.641Z,20.21
2022-10-03T19:12:21.203Z,20.12
2022-10-03T19:15:11.176Z,20.04
2022-10-03T19:17:38.441Z,20.02
2022-10-03T19:20:12.117Z,19.95
2022-10-03T19:22:43.217Z,19.96
2022-10-03T19:25:21.352Z,19.87
2022-10-03T19:27:55.289Z,19.85
2022-10-03T19:30:25.849Z,19.87
2022-10-03T19:33:17.345Z,19.80
2022-10-03T19:35:52.705Z,19.75
2022-10-03T19:38:27.751Z,19.83
2022-10-03T19:41:04.779Z,19.88
2022-10-03T19:43:41.059Z,19.75
2022-10-03T19:46:29.912Z,19.80
2022-10-03T19:49:20.631Z,20.00
2022-10-03T19:51:49.268Z,19.83
2022-10-03T19:54:33.939Z,19.95
2022-10-03T19:57:05.493Z,19.86
2022-10-03T19:59:54.877Z,19.75
2022-10-03T20:02:24.812Z,19.69
2022-10-03T20:05:19.253Z,19.56
2022-10-03T20:08:00.778Z,19.40
2022-10-03T20:11:13.115Z,19.38
2022-10-03T20:13:47.936Z,19.30
2022-10-03T20:16:21.444Z,19.18
2022-10-03T20:18:52.645Z,19.16
2022-10-03T20:21:25.141Z,19.06
2022-10-03T20:23:56.875Z,19.01
2022-10-03T20:26:24.135Z,19.01
2022-10-03T20:29:22.985Z,18.94
2022-10-03T20:31:51.893Z,18.97
2022-10-03T20:34:24.405Z,18.95
2022-10-03T20:37:16.809Z,18.97
2022-10-03T20:39:46.054Z,18.96
2022-10-03T20:42:25.204Z,18.96
2022-10-03T20:45:03.415Z,18.87
2022-10-03T20:48:02.378Z,19.02
2022-10-03T20:50:46.326Z,18.97
2022-10-03T20:53:23.781Z,19.02
2022-10-03T20:55:57.446Z,18.88
2022-10-03T20:58:43.031Z,18.86
2022-10-03T21:01:15.648Z,18.79
2022-10-03T21:04:10.639Z,18.75
2022-10-03T21:07:00.483Z,18.77
2022-10-03T21:09:50.557Z,18.80
2022-10-03T21:12:25.210Z,18.78
2022-10-03T21:15:00.563Z,18.82
2022-10-03T21:17:29.130Z,18.82
2022-10-03T21:20:10.316Z,18.76
2022-10-03T21:22:38.510Z,18.94
2022-10-03T21:25:19.487Z,18.97
2022-10-03T21:27:54.541Z,18.82
2022-10-03T21:30:45.360Z,18.75
2022-10-03T21:33:22.363Z,18.64
2022-10-03T21:35:51.290Z,18.62
2022-10-03T21:38:31.793Z,18.61
2022-10-03T21:41:20.619Z,18.67
2022-10-03T21:44:16.815Z,18.60
2022-10-03T21:47:13.442Z,18.61
2022-10-03T21:49:49.806Z,18.51
2022-10-03T21:52:40.866Z,18.62
2022-10-03T21:55:39.221Z,18.65
2022-10-03T21:58:57.491Z,18.58
2022-10-03T22:01:46.323Z,18.54
2022-10-03T22:04:36.077Z,18.51
2022-10-03T22:07:25.875Z,18.45
2022-10-03T22:09:56.298Z,18.38
2022-10-03T22:12:28.449Z,18.45
2022-10-03T22:15:05.287Z,18.51
2022-10-03T22:17:44.984Z,18.48
2022-10-03T22:20:21.747Z,18.57
2022-10-03T22:23:06.979Z,18.62
2022-10-03T22:25:46.057Z,18.70
2022-10-03T22:28:41.971Z,18.60
2022-10-03T22:31:38.208Z,18.64
2022-10-03T22:34:40.375Z,18.68
2022-10-03T22:37:07.925Z,18.67
2022-10-03T22:39:37.044Z,18.68
2022-10-03T22:42:05.083Z,18.68
2022-10-03T22:44:38.252Z,18.74
2022-10-03T22:47:19.491Z,18.78
2022-10-03T22:49:49.569Z,18.70
2022-10-03T22:52:24.218Z,18.66
2022-10-03T22:54:52.543Z,18.62
2022-10-03T22:57:23.088Z,18.59
2022-10-03T22:59:55.589Z,18.73
2022-10-03T23:02:31.810Z,18.73
2022-10-03T23:05:48.391Z,18.88
2022-10-03T23:08:18.544Z,18.66
2022-10-03T23:10:55.228Z,18.50
2022-10-03T23:13:39.299Z,18.47
2022-10-03T23:16:36.582Z,18.50
2022-10-03T23:19:26.750Z,18.41
2022-10-03T23:21:56.899Z,18.34
2022-10-03T23:24:29.961Z,18.29
2022-10-03T23:27:29.368Z,18.28
2022-10-03T23:30:17.823Z,18.33
2022-10-03T23:32:47.922Z,18.29
2022-10-03T23:35:30.483Z,18.25
2022-10-03T23:37:59.480Z,18.23
2022-10-03T23:40:39.932Z,18.22
2022-10-03T23:43:35.499Z,18.20
2022-10-03T23:46:08.857Z,18.22
2022-10-03T23:48:49.532Z,18.30
2022-10-03T23:51:22.179Z,18.43
2022-10-03T23:53:53.088Z,18.34
2022-10-03T23:56:23.460Z,18.30
2022-10-03T23:59:03.751Z,18.20
